Flight Track Log - Related Links

Times and Time Zones

All times are in EDT time to prevent confusion due to time zone crossing. See the CTL16 flight status page for this flight to view local times or setup timezone preferences in your user account.

Time Position Orientation Groundspeed Altitude Reporting Facility
EDT Latitude Longitude Course Direction KTS MPH feet Rate Location/Type
Wed 08:47:21 PM 39.3500 -84.4667 72° East 134 154 1,700  Level Cincinnati TRACON
Wed 08:48:51 PM 39.3667 -84.4000 72° East 146 168 3,000 679 Climbing Cincinnati TRACON
Wed 08:50:09 PM 39.4072 -84.3503 43° Northeast 152 175 3,600 429 Climbing Indianapolis Center
Wed 08:51:11 PM 39.4403 -84.3114 42° Northeast 157 181 4,000 443 Climbing Indianapolis Center
Wed 08:52:11 PM 39.4772 -84.2697 41° Northeast 162 186 4,500 446 Climbing Indianapolis Center
Wed 08:53:12 PM 39.5097 -84.2306 43° Northeast 160 184 4,900 397 Climbing Indianapolis Center
Wed 08:54:12 PM 39.5422 -84.1917 43° Northeast 161 185 5,300 446 Climbing Indianapolis Center
Wed 08:55:13 PM 39.5744 -84.1553 41° Northeast 157 181 5,800 476 Climbing Indianapolis Center
Wed 08:56:18 PM 39.6044 -84.1161 45° Northeast 156 180 6,300 476 Climbing Indianapolis Center
Wed 08:57:19 PM 39.6442 -84.0708 41° Northeast 159 183 6,800 326 Climbing Indianapolis Center
Wed 08:58:27 PM 39.6833 -84.0231 43° Northeast 168 193 7,000 98 Climbing Indianapolis Center
Wed 08:59:22 PM 39.7156 -83.9839 43° Northeast 188 216 7,000  Level Indianapolis Center
Wed 09:00:24 PM 39.7567 -83.9369 41° Northeast 187 215 7,000 -50 Level Indianapolis Center
Wed 09:01:23 PM 39.7942 -83.8881 45° Northeast 186 214 6,900  Descending Indianapolis Center
Wed 09:02:27 PM 39.8319 -83.8439 42° Northeast 183 211 7,000 50 Climbing Indianapolis Center
Wed 09:03:24 PM 39.8678 -83.7997 43° Northeast 180 207 7,000  Level Indianapolis Center
Wed 09:04:25 PM 39.9050 -83.7528 44° Northeast 183 211 7,000  Level Indianapolis Center
Wed 09:05:25 PM 39.9417 -83.7083 43° Northeast 181 208 7,000  Level Indianapolis Center
Wed 09:06:32 PM 39.9803 -83.6611 43° Northeast 180 207 7,000  Level Indianapolis Center
Wed 09:07:33 PM 40.0200 -83.6119 43° Northeast 185 213 7,000  Level Indianapolis Center
Wed 09:08:33 PM 40.0569 -83.5647 44° Northeast 185 213 7,000  Level Indianapolis Center
Wed 09:09:28 PM 40.0897 -83.5197 46° Northeast 185 213 7,000  Level Indianapolis Center
Wed 09:10:29 PM 40.1264 -83.4753 43° Northeast 182 209 7,000  Level Indianapolis Center
Wed 09:11:30 PM 40.1653 -83.4308 41° Northeast 184 212 7,000  Level Indianapolis Center
Wed 09:12:36 PM 40.2067 -83.3786 44° Northeast 184 212 7,000  Level Indianapolis Center
Wed 09:13:25 PM 40.2342 -83.3436 44° Northeast 178 205 7,000  Level Indianapolis Center
Wed 09:14:44 PM 40.2778 -83.2883 44° Northeast 180 207 7,000  Level Indianapolis Center
Wed 09:15:45 PM 40.3203 -83.2347 44° Northeast 180 207 7,000  Level Indianapolis Center
Wed 09:16:46 PM 40.3567 -83.1894 43° Northeast 179 206 7,000  Level Indianapolis Center
Wed 09:17:48 PM 40.3933 -83.1439 43° Northeast 179 206 7,000  Level Indianapolis Center
Wed 09:18:49 PM 40.4297 -83.0964 45° Northeast 184 212 7,000 -295 Level Indianapolis Center
Wed 09:19:50 PM 40.4681 -83.0483 44° Northeast 187 215 6,400 -732 Descending Indianapolis Center
Wed 09:20:52 PM 40.5100 -82.9981 42° Northeast 200 230 5,500 -1,073 Descending Indianapolis Center
Wed 09:21:53 PM 40.5517 -82.9444 44° Northeast 213 245 4,200 -1,180 Descending Indianapolis Center
Wed 09:22:54 PM 40.5947 -82.8881 45° Northeast 216 249 3,100 -585 Descending Indianapolis Center
Wed 09:23:56 PM 40.6336 -82.8361 45° Northeast 201 231 3,000 -49 Descending Indianapolis Center
Wed 09:24:57 PM 40.6697 -82.7911 43° Northeast 182 209 3,000  Level Indianapolis Center
Wed 09:25:58 PM 40.7100 -82.7383 45° Northeast 175 201 3,000  Level Indianapolis Center
Wed 09:26:59 PM 40.7453 -82.6917 45° Northeast 177 204 3,000  Level Indianapolis Center
Wed 09:28:01 PM 40.7814 -82.6472 43° Northeast 176 203 3,000  Level Indianapolis Center
Wed 09:30:04 PM 40.8506 -82.5567 45° Northeast 175 201 3,000  Level Cleveland Center

Login

Don't have an account? Register now (free) for customized features, flight alerts, and more!